createdAt,value
2023-04-12T00:00:19.747Z,8.18
2023-04-12T00:03:10.397Z,8.14
2023-04-12T00:05:39.224Z,8.08
2023-04-12T00:08:10.829Z,8.03
2023-04-12T00:10:38.973Z,7.97
2023-04-12T00:13:10.789Z,7.91
2023-04-12T00:15:39.186Z,7.83
2023-04-12T00:18:07.389Z,7.75
2023-04-12T00:20:35.443Z,7.66
2023-04-12T00:23:04.151Z,7.60
2023-04-12T00:25:32.215Z,7.56
2023-04-12T00:28:00.378Z,7.53
2023-04-12T00:30:28.994Z,7.49
2023-04-12T00:32:57.026Z,7.47
2023-04-12T00:35:26.602Z,7.44
2023-04-12T00:37:55.040Z,7.40
2023-04-12T00:40:23.247Z,7.37
2023-04-12T00:42:51.413Z,7.34
2023-04-12T00:45:19.494Z,7.32
2023-04-12T00:47:47.911Z,7.30
2023-04-12T00:50:16.196Z,7.27
2023-04-12T00:52:46.934Z,7.25
2023-04-12T00:55:15.986Z,7.23
2023-04-12T00:57:44.095Z,7.19
2023-04-12T01:00:13.304Z,7.18
2023-04-12T01:02:47.484Z,7.15
2023-04-12T01:05:22.708Z,7.14
2023-04-12T01:08:23.334Z,7.12
2023-04-12T01:11:01.792Z,7.12
2023-04-12T01:13:53.267Z,7.10
2023-04-12T01:16:26.644Z,7.09
2023-04-12T01:18:59.930Z,7.08
2023-04-12T01:21:45.307Z,7.07
2023-04-12T01:24:33.022Z,7.08
2023-04-12T01:27:03.582Z,7.08
2023-04-12T01:29:32.548Z,7.07
2023-04-12T01:32:03.174Z,7.07
2023-04-12T01:34:33.627Z,7.07
2023-04-12T01:37:04.139Z,7.07
2023-04-12T01:39:33.974Z,7.06
2023-04-12T01:42:04.085Z,7.04
2023-04-12T01:44:32.431Z,7.02
2023-04-12T01:47:01.124Z,7.00
2023-04-12T01:49:39.655Z,6.99
2023-04-12T01:52:12.668Z,6.97
2023-04-12T01:54:43.005Z,6.96
2023-04-12T01:57:11.586Z,6.94
2023-04-12T01:59:41.932Z,6.93
2023-04-12T02:02:12.215Z,6.93
2023-04-12T02:04:42.354Z,6.93
2023-04-12T02:07:12.148Z,6.95
2023-04-12T02:09:40.523Z,6.97
2023-04-12T02:12:09.617Z,6.99
2023-04-12T02:14:37.880Z,7.00
2023-04-12T02:17:06.135Z,7.01
2023-04-12T02:19:34.475Z,7.02
2023-04-12T02:22:04.622Z,7.02
2023-04-12T02:24:32.838Z,7.04
2023-04-12T02:27:02.078Z,7.05
2023-04-12T02:29:31.467Z,7.06
2023-04-12T02:31:59.653Z,7.07
2023-04-12T02:34:31.430Z,7.08
2023-04-12T02:37:04.986Z,7.08
2023-04-12T02:39:34.584Z,7.09
2023-04-12T02:42:02.903Z,7.09
2023-04-12T02:44:31.502Z,7.09
2023-04-12T02:47:11.686Z,7.09
2023-04-12T02:49:40.915Z,7.09
2023-04-12T02:52:10.757Z,7.09
2023-04-12T02:54:46.484Z,7.11
2023-04-12T02:57:16.940Z,7.11
2023-04-12T02:59:48.989Z,7.12
2023-04-12T03:02:24.549Z,7.13
2023-04-12T03:04:54.918Z,7.14
2023-04-12T03:07:26.451Z,7.14
2023-04-12T03:09:55.555Z,7.15
2023-04-12T03:12:24.648Z,7.16
2023-04-12T03:15:15.702Z,7.16
2023-04-12T03:17:48.527Z,7.16
2023-04-12T03:20:20.331Z,7.16
2023-04-12T03:22:58.979Z,7.17
2023-04-12T03:25:29.324Z,7.18
2023-04-12T03:28:01.370Z,7.18
2023-04-12T03:30:43.447Z,7.19
2023-04-12T03:33:11.524Z,7.19
2023-04-12T03:35:39.972Z,7.20
2023-04-12T03:38:08.562Z,7.20
2023-04-12T03:40:36.628Z,7.20
2023-04-12T03:43:05.419Z,7.20
2023-04-12T03:45:33.583Z,7.20
2023-04-12T03:48:03.316Z,7.20
2023-04-12T03:50:44.665Z,7.20
2023-04-12T03:53:18.693Z,7.20
2023-04-12T03:55:47.936Z,7.20
2023-04-12T03:58:16.596Z,7.21
2023-04-12T04:05:13.331Z,7.21
2023-04-12T04:07:42.692Z,7.22
2023-04-12T04:10:12.100Z,7.21
2023-04-12T04:12:41.265Z,7.21
2023-04-12T04:15:12.137Z,7.21
2023-04-12T04:17:42.803Z,7.21
2023-04-12T04:20:13.616Z,7.21
2023-04-12T04:22:43.374Z,7.22
2023-04-12T04:25:14.284Z,7.23
2023-04-12T04:27:45.455Z,7.24
2023-04-12T04:34:40.493Z,7.27
2023-04-12T04:37:15.611Z,7.28
2023-04-12T04:39:45.331Z,7.29
2023-04-12T04:42:13.562Z,7.30
2023-04-12T04:45:03.711Z,7.32
2023-04-12T04:47:36.735Z,7.33
2023-04-12T04:50:05.238Z,7.35
2023-04-12T04:52:33.384Z,7.36
2023-04-12T04:55:07.970Z,7.38
2023-04-12T04:57:37.724Z,7.40
2023-04-12T05:00:11.240Z,7.42
2023-04-12T05:02:43.913Z,7.43
2023-04-12T05:05:16.016Z,7.47
2023-04-12T05:07:44.938Z,7.51
2023-04-12T05:10:13.109Z,7.55
2023-04-12T05:12:42.351Z,7.58
2023-04-12T05:15:12.375Z,7.62
2023-04-12T05:17:42.040Z,7.65
2023-04-12T05:20:13.332Z,7.69
2023-04-12T05:22:41.412Z,7.72
2023-04-12T05:25:11.483Z,7.76
2023-04-12T05:27:50.403Z,7.80
2023-04-12T05:30:20.674Z,7.85
2023-04-12T05:32:48.633Z,7.90
2023-04-12T05:35:18.086Z,7.91
2023-04-12T05:37:46.329Z,7.92
2023-04-12T05:40:14.927Z,7.94
2023-04-12T05:42:42.985Z,7.97
2023-04-12T05:45:12.634Z,7.98
2023-04-12T05:47:42.902Z,8.02
2023-04-12T05:50:11.010Z,8.05
2023-04-12T05:52:39.448Z,8.08
2023-04-12T05:55:08.178Z,8.11
2023-04-12T05:57:37.583Z,8.17
2023-04-12T06:00:13.260Z,8.22
2023-04-12T06:02:45.177Z,8.26
2023-04-12T06:05:14.748Z,8.28
2023-04-12T06:07:47.079Z,8.30
2023-04-12T06:10:17.621Z,8.31
2023-04-12T06:12:48.666Z,8.34
2023-04-12T06:15:16.753Z,8.35
2023-04-12T06:17:45.489Z,8.37
2023-04-12T06:20:13.802Z,8.38
2023-04-12T06:22:41.964Z,8.42
2023-04-12T06:25:10.139Z,8.44
2023-04-12T06:27:38.575Z,8.48
2023-04-12T06:30:07.639Z,8.49
2023-04-12T06:32:38.637Z,8.52
2023-04-12T06:35:07.807Z,8.57
2023-04-12T06:37:36.255Z,8.63
2023-04-12T06:40:04.848Z,8.69
2023-04-12T06:42:32.737Z,8.73
2023-04-12T06:45:00.879Z,8.76
2023-04-12T06:47:30.244Z,8.80
2023-04-12T06:49:58.468Z,8.85
2023-04-12T06:52:27.539Z,8.90
2023-04-12T06:54:56.929Z,8.94
2023-04-12T06:57:25.206Z,8.94
2023-04-12T06:59:56.265Z,8.92
2023-04-12T07:02:24.221Z,8.91
2023-04-12T07:04:54.368Z,8.90
2023-04-12T07:07:23.122Z,8.94
2023-04-12T07:09:52.473Z,8.96
2023-04-12T07:12:22.107Z,9.01
2023-04-12T07:14:50.133Z,9.08
2023-04-12T07:17:18.389Z,9.17
2023-04-12T07:19:46.386Z,9.24
2023-04-12T07:22:14.987Z,9.32
2023-04-12T07:24:43.112Z,9.38
2023-04-12T07:27:11.248Z,9.43
2023-04-12T07:29:39.262Z,9.50
2023-04-12T07:32:09.124Z,9.56
2023-04-12T07:34:37.941Z,9.65
2023-04-12T07:37:06.358Z,9.74
2023-04-12T07:39:35.187Z,9.83
2023-04-12T07:42:03.505Z,9.92
2023-04-12T07:44:31.933Z,9.94
2023-04-12T07:46:59.939Z,9.93
2023-04-12T07:49:28.328Z,9.91
2023-04-12T07:51:57.624Z,9.93
2023-04-12T07:54:28.293Z,9.92
2023-04-12T07:57:02.000Z,9.85
2023-04-12T07:59:32.036Z,9.76
2023-04-12T08:02:00.738Z,9.69
2023-04-12T08:04:29.072Z,9.65
2023-04-12T08:06:57.093Z,9.64
2023-04-12T08:09:25.238Z,9.62
2023-04-12T08:11:54.135Z,9.64
2023-04-12T08:14:22.079Z,9.66
2023-04-12T08:16:50.028Z,9.67
2023-04-12T08:19:18.924Z,9.67
2023-04-12T08:21:47.032Z,9.67
2023-04-12T08:24:14.971Z,9.68
2023-04-12T08:26:43.213Z,9.70
2023-04-12T08:29:12.608Z,9.70
2023-04-12T08:31:41.567Z,9.70
2023-04-12T08:34:09.550Z,9.73
2023-04-12T08:36:37.603Z,9.73
2023-04-12T08:39:05.790Z,9.72
2023-04-12T08:41:36.547Z,9.73
2023-04-12T08:44:05.914Z,9.80
2023-04-12T08:46:36.391Z,9.87
2023-04-12T08:49:04.851Z,9.95
2023-04-12T08:51:34.153Z,10.01
2023-04-12T08:54:02.124Z,10.09
2023-04-12T08:56:30.576Z,10.19
2023-04-12T08:59:01.076Z,10.29
2023-04-12T09:01:29.842Z,10.36
2023-04-12T09:03:58.434Z,10.41
2023-04-12T09:06:27.510Z,10.44
2023-04-12T09:08:57.415Z,10.52
2023-04-12T09:11:27.478Z,10.67
2023-04-12T09:13:58.204Z,10.88
2023-04-12T09:16:41.449Z,11.21
2023-04-12T09:19:10.125Z,11.63
2023-04-12T09:21:53.778Z,11.96
2023-04-12T09:24:24.469Z,12.26
2023-04-12T09:27:03.593Z,12.51
2023-04-12T09:29:32.933Z,12.79
2023-04-12T09:32:06.713Z,12.99
2023-04-12T09:34:36.304Z,13.10
2023-04-12T09:37:15.080Z,13.16
2023-04-12T09:39:44.348Z,13.23
2023-04-12T09:42:29.813Z,13.28
2023-04-12T09:45:03.594Z,13.22
2023-04-12T09:47:39.922Z,13.19
2023-04-12T09:50:09.875Z,13.17
2023-04-12T09:52:40.019Z,13.19
2023-04-12T09:55:13.734Z,13.11
2023-04-12T09:57:43.947Z,12.95
2023-04-12T10:00:20.379Z,12.77
2023-04-12T10:02:52.031Z,12.69
2023-04-12T10:05:23.346Z,12.65
2023-04-12T10:07:53.105Z,12.66
2023-04-12T10:10:21.694Z,12.69
2023-04-12T10:12:50.728Z,12.75
2023-04-12T10:15:21.312Z,12.85
2023-04-12T10:17:57.876Z,12.91
2023-04-12T10:20:29.308Z,12.98
2023-04-12T10:22:59.837Z,13.06
2023-04-12T10:25:31.918Z,13.16
2023-04-12T10:28:21.957Z,13.26
2023-04-12T10:30:52.308Z,13.30
2023-04-12T10:33:26.668Z,13.34
2023-04-12T10:36:00.955Z,13.36
2023-04-12T10:38:37.417Z,13.35
2023-04-12T10:41:15.284Z,13.34
2023-04-12T10:43:51.365Z,13.24
2023-04-12T10:46:47.539Z,13.15
2023-04-12T10:49:17.129Z,13.07
2023-04-12T10:52:09.764Z,13.06
2023-04-12T10:54:37.723Z,13.12
2023-04-12T10:57:08.542Z,13.18
2023-04-12T10:59:59.434Z,13.24
2023-04-12T11:04:37.907Z,13.42
2023-04-12T11:07:12.466Z,13.52
2023-04-12T11:09:51.258Z,13.65
2023-04-12T11:12:32.724Z,13.77
2023-04-12T11:15:03.273Z,13.86
2023-04-12T11:17:39.931Z,13.89
2023-04-12T11:20:12.680Z,13.85
2023-04-12T11:22:41.133Z,13.83
2023-04-12T11:25:10.228Z,13.85
2023-04-12T11:27:39.614Z,13.75
2023-04-12T11:30:08.603Z,13.60
2023-04-12T11:32:41.610Z,13.57
2023-04-12T11:35:10.140Z,13.64
2023-04-12T11:37:39.120Z,13.70
2023-04-12T11:40:09.662Z,13.68
2023-04-12T11:42:39.982Z,13.68
2023-04-12T11:45:17.247Z,13.65
2023-04-12T11:47:46.703Z,13.52
2023-04-12T11:50:28.192Z,13.52
2023-04-12T11:53:09.822Z,13.62
2023-04-12T11:55:37.937Z,13.79
2023-04-12T11:58:07.387Z,13.95
2023-04-12T12:00:35.599Z,14.05
2023-04-12T12:03:08.230Z,14.06
2023-04-12T12:05:42.152Z,14.22
2023-04-12T12:08:11.389Z,14.39
2023-04-12T12:10:52.400Z,14.51
2023-04-12T12:13:53.229Z,14.64
2023-04-12T12:16:28.133Z,14.79
2023-04-12T12:18:57.710Z,14.86
2023-04-12T12:21:27.586Z,14.95
2023-04-12T12:23:57.317Z,14.98
2023-04-12T12:26:28.422Z,14.95
2023-04-12T12:29:00.195Z,15.06
2023-04-12T12:31:29.721Z,15.25
2023-04-12T12:34:00.330Z,15.39
2023-04-12T12:36:33.478Z,15.49
2023-04-12T12:39:07.912Z,15.55
2023-04-12T12:41:36.707Z,15.56
2023-04-12T12:44:05.282Z,15.57
2023-04-12T12:49:06.196Z,15.29
2023-04-12T12:51:34.534Z,15.20
2023-04-12T12:54:03.128Z,15.12
2023-04-12T12:56:31.760Z,14.92
2023-04-12T12:58:59.839Z,14.76
2023-04-12T13:01:28.961Z,14.60
2023-04-12T13:03:58.975Z,14.46
2023-04-12T13:06:28.467Z,14.44
2023-04-12T13:08:56.880Z,14.50
2023-04-12T13:11:25.352Z,14.63
2023-04-12T13:13:53.380Z,14.73
2023-04-12T13:16:24.008Z,14.85
2023-04-12T13:18:53.386Z,14.91
2023-04-12T13:21:21.898Z,14.89
2023-04-12T13:23:50.241Z,14.98
2023-04-12T13:26:18.703Z,15.05
2023-04-12T13:28:47.037Z,15.10
2023-04-12T13:31:15.809Z,15.10
2023-04-12T13:33:44.064Z,15.12
2023-04-12T13:36:12.037Z,15.15
2023-04-12T13:38:40.398Z,15.20
2023-04-12T13:41:08.477Z,15.24
2023-04-12T13:43:36.687Z,15.26
2023-04-12T13:46:04.972Z,15.26
2023-04-12T13:48:33.317Z,15.18
2023-04-12T13:51:02.049Z,15.09
2023-04-12T13:53:31.057Z,14.91
2023-04-12T13:55:59.277Z,14.65
2023-04-12T13:58:27.495Z,14.48
2023-04-12T14:00:56.911Z,14.42
2023-04-12T14:03:25.213Z,14.33
2023-04-12T14:05:53.398Z,14.27
2023-04-12T14:08:22.072Z,14.16
2023-04-12T14:10:50.138Z,14.03
2023-04-12T14:13:18.954Z,13.95
2023-04-12T14:15:47.985Z,13.90
2023-04-12T14:18:16.416Z,13.90
2023-04-12T14:20:46.617Z,13.94
2023-04-12T14:23:15.229Z,13.96
2023-04-12T14:25:43.680Z,14.01
2023-04-12T14:28:16.771Z,14.06
2023-04-12T14:30:45.409Z,14.12
2023-04-12T14:33:14.131Z,14.16
2023-04-12T14:35:42.342Z,14.18
2023-04-12T14:38:10.986Z,14.18
2023-04-12T14:40:39.421Z,14.20
2023-04-12T14:43:07.952Z,14.25
2023-04-12T14:45:39.152Z,14.33
2023-04-12T14:48:07.796Z,14.42
2023-04-12T14:50:36.138Z,14.50
2023-04-12T14:53:05.297Z,14.55
2023-04-12T14:55:33.536Z,14.55
2023-04-12T14:58:01.540Z,14.48
2023-04-12T15:00:29.875Z,14.43
2023-04-12T15:03:00.963Z,14.39
2023-04-12T15:05:30.677Z,14.36
2023-04-12T15:07:59.094Z,14.27
2023-04-12T15:10:28.216Z,14.20
2023-04-12T15:12:58.163Z,14.21
2023-04-12T15:15:26.245Z,14.23
2023-04-12T15:17:54.333Z,14.23
2023-04-12T15:20:22.713Z,14.24
2023-04-12T15:22:50.859Z,14.21
2023-04-12T15:25:18.884Z,14.14
2023-04-12T15:27:47.110Z,14.09
2023-04-12T15:30:15.716Z,14.03
2023-04-12T15:32:44.132Z,13.94
2023-04-12T15:37:44.260Z,13.77
2023-04-12T15:40:15.825Z,13.80
2023-04-12T15:42:44.344Z,13.85
2023-04-12T15:45:12.707Z,13.87
2023-04-12T15:47:41.445Z,13.86
2023-04-12T15:50:09.792Z,13.82
2023-04-12T15:52:37.913Z,13.78
2023-04-12T15:55:06.358Z,13.73
2023-04-12T15:57:34.497Z,13.67
2023-04-12T16:00:12.988Z,13.60
2023-04-12T16:02:41.267Z,13.52
2023-04-12T16:05:09.638Z,13.46
2023-04-12T16:07:40.684Z,13.38
2023-04-12T16:10:09.407Z,13.29
2023-04-12T16:12:37.687Z,13.22
2023-04-12T16:15:07.135Z,13.14
2023-04-12T16:17:37.471Z,13.08
2023-04-12T16:20:06.719Z,13.01
2023-04-12T16:22:34.944Z,12.91
2023-04-12T16:25:04.760Z,12.83
2023-04-12T16:27:33.152Z,12.75
2023-04-12T16:30:03.046Z,12.66
2023-04-12T16:32:32.303Z,12.59
2023-04-12T16:35:00.618Z,12.53
2023-04-12T16:37:30.159Z,12.48
2023-04-12T16:39:58.703Z,12.42
2023-04-12T16:42:28.880Z,12.35
2023-04-12T16:44:57.121Z,12.28
2023-04-12T16:47:25.561Z,12.21
2023-04-12T16:49:53.768Z,12.14
2023-04-12T16:52:22.070Z,12.08
2023-04-12T16:54:50.245Z,12.01
2023-04-12T16:57:18.517Z,11.96
2023-04-12T16:59:46.679Z,11.90
2023-04-12T17:02:14.648Z,11.84
2023-04-12T17:04:44.412Z,11.78
2023-04-12T17:07:12.639Z,11.70
2023-04-12T17:09:41.999Z,11.62
2023-04-12T17:12:10.033Z,11.54
2023-04-12T17:14:38.723Z,11.46
2023-04-12T17:17:07.162Z,11.39
2023-04-12T17:19:35.842Z,11.31
2023-04-12T17:22:04.046Z,11.23
2023-04-12T17:24:32.950Z,11.16
2023-04-12T17:27:01.154Z,11.10
2023-04-12T17:29:29.680Z,11.01
2023-04-12T17:31:57.947Z,10.93
2023-04-12T17:34:26.278Z,10.85
2023-04-12T17:36:55.379Z,10.75
2023-04-12T17:39:24.016Z,10.65
2023-04-12T17:41:52.460Z,10.55
2023-04-12T17:44:20.761Z,10.44
2023-04-12T17:46:49.057Z,10.35
2023-04-12T17:49:17.743Z,10.23
2023-04-12T17:51:45.907Z,10.13
2023-04-12T17:54:13.916Z,10.02
2023-04-12T17:56:42.553Z,9.91
2023-04-12T17:59:11.409Z,9.81
2023-04-12T18:01:39.794Z,9.70
2023-04-12T18:04:08.542Z,9.61
2023-04-12T18:06:37.361Z,9.51
2023-04-12T18:09:09.077Z,9.41
2023-04-12T18:11:39.089Z,9.31
2023-04-12T18:14:08.281Z,9.21
2023-04-12T18:16:37.111Z,9.11
2023-04-12T18:19:07.872Z,9.01
2023-04-12T18:21:35.877Z,8.90
2023-04-12T18:24:04.723Z,8.80
2023-04-12T18:26:32.945Z,8.69
2023-04-12T18:29:01.048Z,8.59
2023-04-12T18:31:30.446Z,8.50
2023-04-12T18:33:58.913Z,8.43
2023-04-12T18:36:27.349Z,8.38
2023-04-12T18:38:55.967Z,8.34
2023-04-12T18:41:26.450Z,8.30
2023-04-12T18:43:54.839Z,8.24
2023-04-12T18:46:22.998Z,8.19
2023-04-12T18:48:52.890Z,8.14
2023-04-12T18:51:23.065Z,8.10
2023-04-12T18:53:51.502Z,8.06
2023-04-12T18:56:24.527Z,8.01
2023-04-12T18:58:55.952Z,7.94
2023-04-12T19:04:37.065Z,7.73
2023-04-12T19:07:05.990Z,7.66
2023-04-12T19:09:34.598Z,7.59
2023-04-12T19:12:03.157Z,7.53
2023-04-12T19:14:32.099Z,7.47
2023-04-12T19:17:00.994Z,7.41
2023-04-12T19:19:29.240Z,7.34
2023-04-12T19:21:57.727Z,7.28
2023-04-12T19:24:26.019Z,7.21
2023-04-12T19:26:53.982Z,7.13
2023-04-12T19:29:22.803Z,7.05
2023-04-12T19:31:54.014Z,6.99
2023-04-12T19:34:23.175Z,6.95
2023-04-12T19:36:51.332Z,6.89
2023-04-12T19:39:20.660Z,6.80
2023-04-12T19:41:49.301Z,6.72
2023-04-12T19:44:17.451Z,6.63
2023-04-12T19:46:45.563Z,6.52
2023-04-12T19:49:13.963Z,6.47
2023-04-12T19:51:42.153Z,6.41
2023-04-12T19:54:10.110Z,6.36
2023-04-12T19:56:38.145Z,6.28
2023-04-12T19:59:06.844Z,6.19
2023-04-12T20:01:43.161Z,6.10
2023-04-12T20:04:11.413Z,6.02
2023-04-12T20:06:39.633Z,5.96
2023-04-12T20:09:08.021Z,5.91
2023-04-12T20:11:36.389Z,5.85
2023-04-12T20:14:10.734Z,5.80
2023-04-12T20:16:42.918Z,5.70
2023-04-12T20:19:11.406Z,5.63
2023-04-12T20:21:40.363Z,5.55
2023-04-12T20:24:08.871Z,5.46
2023-04-12T20:26:37.397Z,5.38
2023-04-12T20:29:05.703Z,5.30
2023-04-12T20:31:33.969Z,5.23
2023-04-12T20:34:01.940Z,5.16
2023-04-12T20:36:29.865Z,5.10
2023-04-12T20:38:58.108Z,5.05
2023-04-12T20:41:26.319Z,5.00
2023-04-12T20:43:54.295Z,4.96
2023-04-12T20:46:26.008Z,4.91
2023-04-12T20:48:56.882Z,4.85
2023-04-12T20:51:25.084Z,4.78
2023-04-12T20:53:53.835Z,4.73
2023-04-12T20:56:22.008Z,4.67
2023-04-12T20:58:50.419Z,4.62
2023-04-12T21:01:18.996Z,4.56
2023-04-12T21:03:47.679Z,4.52
2023-04-12T21:06:17.103Z,4.48
2023-04-12T21:08:47.338Z,4.44
2023-04-12T21:11:16.789Z,4.42
2023-04-12T21:13:44.817Z,4.37
2023-04-12T21:16:16.153Z,4.32
2023-04-12T21:18:44.895Z,4.28
2023-04-12T21:21:12.942Z,4.23
2023-04-12T21:23:41.008Z,4.18
2023-04-12T21:26:08.989Z,4.13
2023-04-12T21:28:38.651Z,4.08
2023-04-12T21:31:07.013Z,4.02
2023-04-12T21:33:35.920Z,3.97
2023-04-12T21:36:04.433Z,3.92
2023-04-12T21:38:32.329Z,3.87
2023-04-12T21:41:05.895Z,3.83
2023-04-12T21:43:33.785Z,3.78
2023-04-12T21:46:01.814Z,3.75
2023-04-12T21:48:29.773Z,3.70
2023-04-12T21:50:57.672Z,3.66
2023-04-12T21:53:25.738Z,3.61
2023-04-12T21:55:53.604Z,3.57
2023-04-12T21:58:22.078Z,3.52
2023-04-12T22:00:50.027Z,3.49
2023-04-12T22:03:20.114Z,3.45
2023-04-12T22:06:00.873Z,3.41
2023-04-12T22:08:32.976Z,3.38
2023-04-12T22:11:01.426Z,3.34
2023-04-12T22:13:30.774Z,3.30
2023-04-12T22:16:00.715Z,3.27
2023-04-12T22:18:36.006Z,3.26
2023-04-12T22:21:07.869Z,3.26
2023-04-12T22:23:40.371Z,3.23
2023-04-12T22:26:09.198Z,3.19
2023-04-12T22:28:38.426Z,3.14
2023-04-12T22:31:14.665Z,3.10
2023-04-12T22:33:43.769Z,3.06
2023-04-12T22:36:11.681Z,3.03
2023-04-12T22:38:40.186Z,2.99
2023-04-12T22:41:08.051Z,2.96
2023-04-12T22:43:43.064Z,2.91
2023-04-12T22:46:15.919Z,2.85
2023-04-12T22:48:48.375Z,2.81
2023-04-12T22:51:16.231Z,2.76
2023-04-12T22:53:44.438Z,2.71
2023-04-12T22:56:13.480Z,2.66
2023-04-12T22:58:42.905Z,2.60
2023-04-12T23:01:11.360Z,2.56
2023-04-12T23:03:42.653Z,2.52
2023-04-12T23:06:12.840Z,2.49
2023-04-12T23:08:40.761Z,2.49
2023-04-12T23:11:08.616Z,2.50
2023-04-12T23:13:36.727Z,2.49
2023-04-12T23:16:05.780Z,2.48
2023-04-12T23:18:33.850Z,2.47
2023-04-12T23:21:01.937Z,2.47
2023-04-12T23:23:30.882Z,2.47
2023-04-12T23:25:59.591Z,2.45
2023-04-12T23:28:28.520Z,2.42
2023-04-12T23:30:57.762Z,2.38
2023-04-12T23:33:25.661Z,2.35
2023-04-12T23:35:55.855Z,2.33
2023-04-12T23:38:26.229Z,2.30
2023-04-12T23:40:54.429Z,2.29
2023-04-12T23:43:24.478Z,2.28
2023-04-12T23:45:53.127Z,2.30
2023-04-12T23:48:21.771Z,2.29
2023-04-12T23:50:51.119Z,2.26
2023-04-12T23:53:19.433Z,2.25
2023-04-12T23:55:49.148Z,2.23
2023-04-12T23:58:18.280Z,2.22
